Terminal Aerodrome Forecast
Issued by NWS Jackson, KY

Home | Current Version | Previous Version | Text Only | Print | Product List | Glossary On
Versions: 1 2 3 4 5 6 7 8 9 10 11 12 13 14 15 16 17 18 19 20 21 22 23 24
389
FTUS43 KJKL 011237 AAA
TAFLOZ
TAF AMD
KLOZ 011237Z 0113/0212 VRB04KT P6SM SCT025
     FM011400 23006KT P6SM SCT035 BKN060=

USA.gov is the U.S. government's official web portal to all federal, state and local government web resources and services.